Time;durP1;ratioP1;P1;durP2;ratioP2;P2;SDS_P1;SDS_P2;PMS_P1;PMS_P2;Temp;Humidity;BMP_temperature;BMP_pressure;BME280_temperature;BME280_humidity;BME280_pressure;Samples;Min_cycle;Max_cycle;Signal;HPM_P1;HPM_P2
2021/04/20 04:02:38;;;;;;;67.87;33.93;;;4.80;99.90;;;;;;4991240;23;20489;-64
2021/04/20 04:05:08;;;;;;;163.63;37.80;;;4.90;99.90;;;;;;4975801;28;20435;-66
2021/04/20 04:07:36;;;;;;;113.53;37.80;;;4.90;99.90;;;;;;4975516;28;20455;-66
2021/04/20 04:10:04;;;;;;;106.73;36.80;;;4.90;99.90;;;;;;4975505;28;20446;-65
2021/04/20 04:12:37;;;;;;;160.33;39.43;;;4.90;99.90;;;;;;4975930;28;20475;-66
2021/04/20 04:15:07;;;;;;;105.10;38.30;;;5.00;99.90;;;;;;4975528;28;20442;-64
2021/04/20 04:17:35;;;;;;;163.13;37.53;;;5.00;99.90;;;;;;4975666;28;20572;-65
2021/04/20 04:20:04;;;;;;;215.60;38.90;;;5.00;99.90;;;;;;4975334;28;20544;-65
2021/04/20 04:22:35;;;;;;;131.97;37.10;;;5.00;99.90;;;;;;4975753;28;20479;-66
2021/04/20 04:25:03;;;;;;;87.03;35.10;;;5.00;99.90;;;;;;4976217;28;20918;-64
2021/04/20 04:27:34;;;;;;;80.70;33.00;;;5.10;99.90;;;;;;4975508;28;20462;-65
2021/04/20 04:30:05;;;;;;;72.77;34.00;;;5.10;99.90;;;;;;4976246;28;20913;-65
2021/04/20 04:32:32;;;;;;;114.03;35.40;;;5.00;99.90;;;;;;4975913;28;20475;-65
2021/04/20 04:35:03;;;;;;;47.27;33.30;;;5.00;99.90;;;;;;4975876;28;20482;-65
2021/04/20 04:37:29;;;;;;;54.60;31.83;;;5.00;99.90;;;;;;4975726;28;20435;-65
2021/04/20 04:39:57;;;;;;;67.30;33.60;;;5.00;99.90;;;;;;4975411;28;20482;-65
2021/04/20 04:42:24;;;;;;;54.90;32.80;;;5.00;99.90;;;;;;4983212;28;20475;-66
2021/04/20 04:44:50;;;;;;;44.37;31.63;;;5.00;99.90;;;;;;4988715;28;20455;-66
2021/04/20 04:47:17;;;;;;;46.33;31.60;;;5.00;99.90;;;;;;4979232;28;20805;-65
2021/04/20 04:49:46;;;;;;;82.70;32.27;;;4.90;99.90;;;;;;4975412;28;20450;-66
2021/04/20 04:52:14;;;;;;;45.97;32.40;;;4.90;99.90;;;;;;4976516;28;20510;-65
2021/04/20 04:54:41;;;;;;;146.83;33.00;;;5.00;99.90;;;;;;4976123;28;20458;-65
2021/04/20 04:57:11;;;;;;;83.70;34.23;;;5.00;99.90;;;;;;4975825;28;21000;-64
2021/04/20 04:59:39;;;;;;;147.83;33.67;;;5.00;99.90;;;;;;4974669;28;20502;-65
2021/04/20 05:02:07;;;;;;;116.60;32.50;;;5.00;99.90;;;;;;4976590;28;20556;-64
2021/04/20 05:04:33;;;;;;;140.07;34.93;;;4.90;99.90;;;;;;4978306;28;20454;-65
2021/04/20 05:06:59;;;;;;;120.07;34.67;;;5.00;99.90;;;;;;4978373;28;20455;-65
2021/04/20 05:09:26;;;;;;;64.30;30.30;;;5.00;99.90;;;;;;4977913;28;20804;-65
2021/04/20 05:11:53;;;;;;;67.00;31.27;;;5.00;99.90;;;;;;4978057;28;21017;-65
2021/04/20 05:14:21;;;;;;;115.80;32.53;;;5.00;99.90;;;;;;4977889;28;20965;-65
2021/04/20 05:16:49;;;;;;;197.70;35.13;;;5.00;99.90;;;;;;4978290;28;20474;-65
2021/04/20 05:19:22;;;;;;;184.97;33.90;;;5.00;99.90;;;;;;4978155;28;20462;-64
2021/04/20 05:21:48;;;;;;;111.10;30.50;;;5.00;99.90;;;;;;4978088;28;20474;-65
2021/04/20 05:24:15;;;;;;;54.30;29.80;;;5.00;99.90;;;;;;4978392;28;20459;-65
2021/04/20 05:26:42;;;;;;;62.83;29.70;;;4.90;99.90;;;;;;4977918;28;20457;-65
2021/04/20 05:29:08;;;;;;;193.73;31.33;;;5.00;99.90;;;;;;4978603;28;20454;-65
2021/04/20 05:31:35;;;;;;;141.73;29.77;;;5.00;99.90;;;;;;4979125;28;20992;-66
2021/04/20 05:34:04;;;;;;;44.40;26.27;;;5.00;99.90;;;;;;4978216;28;20490;-65
2021/04/20 05:36:31;;;;;;;48.47;27.27;;;5.00;99.90;;;;;;4978164;28;20488;-65
2021/04/20 05:38:59;;;;;;;56.33;27.63;;;5.10;99.90;;;;;;4979011;28;20462;-66
2021/04/20 05:41:27;;;;;;;54.73;28.10;;;5.20;99.90;;;;;;4978849;28;20488;-65
2021/04/20 05:43:56;;;;;;;80.40;25.90;;;5.30;99.90;;;;;;4978130;28;20455;-66
2021/04/20 05:46:23;;;;;;;44.13;25.40;;;5.40;99.90;;;;;;4978280;28;20458;-65
2021/04/20 05:48:50;;;;;;;78.63;27.70;;;5.30;99.90;;;;;;4977929;28;20509;-66
2021/04/20 05:51:17;;;;;;;69.27;24.90;;;5.20;99.90;;;;;;4978172;28;20475;-65
2021/04/20 05:53:44;;;;;;;58.50;24.13;;;5.40;99.90;;;;;;4977850;28;20455;-64
2021/04/20 05:56:10;;;;;;;65.03;23.80;;;5.50;99.90;;;;;;4978266;28;20458;-66
2021/04/20 05:58:36;;;;;;;46.60;25.53;;;5.50;99.90;;;;;;4978065;28;20438;-65
2021/04/20 06:01:05;;;;;;;120.60;27.87;;;5.70;99.90;;;;;;4977658;28;20486;-65
2021/04/20 06:03:33;;;;;;;39.60;24.53;;;5.80;99.90;;;;;;4977811;28;20512;-65
2021/04/20 06:06:01;;;;;;;27.33;24.17;;;5.90;99.90;;;;;;4978211;28;20481;-65
2021/04/20 06:08:28;;;;;;;30.20;22.73;;;6.00;99.90;;;;;;4978408;28;20443;-65
2021/04/20 06:10:55;;;;;;;27.03;22.07;;;6.40;99.90;;;;;;4977895;28;20505;-65
2021/04/20 06:13:22;;;;;;;25.07;22.37;;;6.50;99.90;;;;;;4976857;28;20461;-65
2021/04/20 06:15:51;;;;;;;25.87;23.17;;;6.90;99.90;;;;;;4986472;28;20438;-66
2021/04/20 06:18:18;;;;;;;22.60;20.00;;;7.30;99.90;;;;;;4993868;28;20797;-65
2021/04/20 06:20:45;;;;;;;22.23;19.30;;;7.80;99.90;;;;;;4981833;28;20494;-64
2021/04/20 06:23:11;;;;;;;21.97;19.57;;;8.40;99.90;;;;;;4982615;28;20458;-64
2021/04/20 06:25:38;;;;;;;23.70;19.33;;;8.90;99.90;;;;;;4981523;28;20458;-64
2021/04/20 06:28:04;;;;;;;21.73;19.53;;;9.20;99.90;;;;;;4978706;28;20454;-65
2021/04/20 06:30:31;;;;;;;19.30;17.50;;;9.60;99.90;;;;;;4977705;28;21008;-65
2021/04/20 06:32:57;;;;;;;19.03;17.10;;;10.00;99.90;;;;;;4977905;28;20455;-65
2021/04/20 06:35:24;;;;;;;17.63;16.03;;;10.20;99.90;;;;;;4977985;28;20455;-64
2021/04/20 06:37:52;;;;;;;19.63;17.13;;;10.60;99.90;;;;;;4977195;28;20870;-65
2021/04/20 06:40:23;;;;;;;20.43;18.53;;;10.70;99.90;;;;;;4976473;28;20981;-64
2021/04/20 06:42:53;;;;;;;20.53;18.53;;;10.90;99.90;;;;;;4977045;28;20493;-64
2021/04/20 06:45:29;;;;;;;21.63;19.43;;;11.10;99.90;;;;;;4977029;28;20458;-64
2021/04/20 06:47:59;;;;;;;21.10;18.53;;;11.20;99.90;;;;;;4978096;28;20442;-64
2021/04/20 06:50:30;;;;;;;21.00;18.73;;;11.20;99.90;;;;;;4977240;28;20450;-64
2021/04/20 06:53:01;;;;;;;21.10;18.80;;;11.00;99.90;;;;;;4976878;28;20443;-64
2021/04/20 06:55:37;;;;;;;24.67;22.10;;;10.90;99.90;;;;;;4976404;28;20445;-65
2021/04/20 06:58:09;;;;;;;23.97;21.47;;;10.80;99.90;;;;;;4976753;28;20442;-63
2021/04/20 07:00:42;;;;;;;24.50;22.00;;;10.50;99.90;;;;;;4976225;28;20482;-65
2021/04/20 07:03:21;;;;;;;24.40;22.00;;;10.10;99.90;;;;;;4976724;28;20508;-64
2021/04/20 07:05:53;;;;;;;25.90;22.23;;;10.10;99.90;;;;;;4976751;28;20801;-65
2021/04/20 07:08:24;;;;;;;25.40;22.67;;;9.90;99.90;;;;;;4977108;28;20438;-64
2021/04/20 07:10:53;;;;;;;27.60;24.37;;;9.80;99.90;;;;;;4976342;28;20478;-64
2021/04/20 07:13:22;;;;;;;27.03;23.57;;;9.70;99.90;;;;;;4976401;28;20455;-64
2021/04/20 07:15:52;;;;;;;25.10;22.60;;;9.40;99.90;;;;;;4976630;28;20865;-63
2021/04/20 07:18:51;;;;;;;24.90;22.40;;;9.70;99.90;;;;;;4976839;28;20466;-64
2021/04/20 07:21:34;;;;;;;24.93;22.33;;;10.70;99.90;;;;;;4979597;28;20486;-64
2021/04/20 07:24:15;;;;;;;31.00;21.83;;;11.70;99.90;;;;;;4980163;28;20438;-63
2021/04/20 07:26:54;;;;;;;25.47;22.93;;;12.20;99.90;;;;;;4977061;28;20435;-64
2021/04/20 07:29:31;;;;;;;24.77;22.37;;;12.60;99.90;;;;;;4976462;28;20805;-65
2021/04/20 07:32:08;;;;;;;23.93;21.60;;;13.20;99.90;;;;;;4976349;28;20478;-65
2021/04/20 07:34:39;;;;;;;23.57;21.07;;;13.70;99.90;;;;;;4976080;28;20932;-65
2021/04/20 07:37:23;;;;;;;24.60;22.20;;;14.40;99.90;;;;;;4978274;28;20439;-64
2021/04/20 07:39:57;;;;;;;23.50;21.40;;;14.70;99.90;;;;;;4994899;28;20462;-65
2021/04/20 07:42:33;;;;;;;24.70;22.40;;;14.70;99.90;;;;;;4997019;28;20466;-65
2021/04/20 07:45:08;;;;;;;24.33;21.97;;;14.50;99.90;;;;;;4997502;28;20435;-63
2021/04/20 07:47:43;;;;;;;24.33;22.20;;;15.10;99.90;;;;;;4998329;28;20438;-64
2021/04/20 07:50:15;;;;;;;25.53;23.00;;;16.00;99.90;;;;;;4998696;28;20439;-64
2021/04/20 07:52:50;;;;;;;26.73;24.17;;;15.90;99.90;;;;;;4995944;28;20454;-64
2021/04/20 07:55:20;;;;;;;26.93;24.43;;;16.40;99.90;;;;;;4998829;28;20434;-65
2021/04/20 07:57:51;;;;;;;25.27;22.87;;;15.70;99.90;;;;;;4998243;28;20427;-64
2021/04/20 08:00:20;;;;;;;27.40;24.70;;;15.60;99.90;;;;;;4999006;28;20450;-66
2021/04/20 08:02:53;;;;;;;25.80;23.40;;;15.80;99.90;;;;;;4999153;28;20434;-65
2021/04/20 08:05:25;;;;;;;27.80;25.10;;;15.60;99.90;;;;;;4999218;28;20454;-64
2021/04/20 08:07:58;;;;;;;25.40;23.07;;;16.40;99.90;;;;;;4999643;28;20426;-64
2021/04/20 08:10:29;;;;;;;27.00;24.50;;;17.10;99.90;;;;;;4999656;28;20504;-64
2021/04/20 08:13:02;;;;;;;25.97;23.57;;;17.50;99.90;;;;;;4999526;28;20457;-65
2021/04/20 08:15:35;;;;;;;26.00;23.40;;;18.10;99.90;;;;;;4999377;28;20429;-65
2021/04/20 08:18:06;;;;;;;27.67;24.97;;;18.40;99.90;;;;;;4999576;28;20419;-64
2021/04/20 08:20:33;;;;;;;27.20;24.80;;;18.70;99.90;;;;;;4999143;28;20491;-64
2021/04/20 08:23:04;;;;;;;28.30;25.80;;;19.60;99.90;;;;;;4998981;28;20434;-64
2021/04/20 08:25:34;;;;;;;29.60;26.70;;;19.50;99.50;;;;;;4999441;28;20427;-64
2021/04/20 08:28:09;;;;;;;31.20;28.10;;;20.40;96.80;;;;;;4999286;28;20461;-64
2021/04/20 08:30:41;;;;;;;29.73;26.90;;;20.30;95.50;;;;;;4999551;28;20462;-64
2021/04/20 08:33:12;;;;;;;31.13;28.33;;;19.70;96.50;;;;;;4989896;28;20439;-64
2021/04/20 08:35:39;;;;;;;32.67;29.40;;;19.30;96.70;;;;;;4993095;28;20455;-65
2021/04/20 08:38:22;;;;;;;30.43;27.70;;;19.10;97.00;;;;;;5000506;28;20445;-64
2021/04/20 08:40:55;;;;;;;32.27;28.97;;;19.10;97.60;;;;;;5001596;28;20493;-64
2021/04/20 08:43:37;;;;;;;31.33;28.53;;;19.20;97.70;;;;;;5002630;28;20496;-65
2021/04/20 08:46:11;;;;;;;30.90;28.03;;;19.40;98.50;;;;;;5002849;28;20438;-65
2021/04/20 08:48:49;;;;;;;31.93;29.03;;;19.90;97.40;;;;;;5002971;28;20462;-65
2021/04/20 08:51:28;;;;;;;32.17;29.07;;;19.30;95.30;;;;;;4984009;28;20544;-64
2021/04/20 08:54:08;;;;;;;31.27;28.50;;;19.50;97.50;;;;;;4979494;28;20450;-64
2021/04/20 08:56:41;;;;;;;34.20;31.10;;;20.20;94.80;;;;;;4979505;28;20489;-63
2021/04/20 08:59:17;;;;;;;30.67;27.33;;;19.50;95.80;;;;;;4979454;28;20439;-64
2021/04/20 09:01:54;;;;;;;29.83;27.07;;;19.90;96.20;;;;;;4979027;28;20520;-64
2021/04/20 09:04:43;;;;;;;31.40;28.60;;;21.00;94.70;;;;;;4979305;28;20914;-64
2021/04/20 09:07:15;;;;;;;30.80;28.10;;;22.20;91.10;;;;;;4978926;28;20847;-65
2021/04/20 09:09:45;;;;;;;30.13;27.33;;;21.20;91.90;;;;;;4979833;28;20446;-65
2021/04/20 09:12:14;;;;;;;32.07;29.23;;;22.10;90.40;;;;;;4979474;28;20475;-65
2021/04/20 09:14:42;;;;;;;27.70;25.13;;;22.80;90.00;;;;;;4979254;28;20529;-65
2021/04/20 09:17:09;;;;;;;28.53;26.00;;;22.60;90.20;;;;;;4979221;28;20461;-65
2021/04/20 09:19:37;;;;;;;25.87;23.63;;;22.60;84.70;;;;;;4979470;28;20454;-66
2021/04/20 09:22:13;;;;;;;29.07;26.47;;;22.00;85.80;;;;;;4979150;28;20556;-64
2021/04/20 09:24:46;;;;;;;28.57;26.07;;;21.80;89.80;;;;;;4982469;28;20497;-65
2021/04/20 09:27:17;;;;;;;25.87;23.67;;;22.30;86.00;;;;;;4981119;28;20443;-65
2021/04/20 09:29:53;;;;;;;30.53;27.83;;;21.70;85.60;;;;;;4979092;28;20832;-64
2021/04/20 09:32:21;;;;;;;28.60;26.30;;;21.80;88.60;;;;;;4978797;28;20497;-65
2021/04/20 09:34:50;;;;;;;28.40;25.90;;;21.90;89.60;;;;;;4978625;28;20933;-65
2021/04/20 09:37:18;;;;;;;28.60;26.10;;;22.70;90.00;;;;;;4978591;28;20879;-65
2021/04/20 09:39:53;;;;;;;28.80;26.40;;;22.80;84.30;;;;;;4978526;28;20532;-64
2021/04/20 09:42:21;;;;;;;29.37;26.67;;;22.70;85.60;;;;;;4978940;28;20832;-65
2021/04/20 09:45:00;;;;;;;30.97;28.13;;;21.90;84.50;;;;;;4978572;28;20513;-65
2021/04/20 09:47:44;;;;;;;28.63;26.03;;;21.20;84.70;;;;;;4977702;28;20781;-65
2021/04/20 09:50:17;;;;;;;30.37;27.53;;;21.50;86.90;;;;;;4978292;28;20846;-64
2021/04/20 09:52:51;;;;;;;27.60;25.20;;;21.80;83.00;;;;;;4978642;28;20438;-65
2021/04/20 09:55:27;;;;;;;26.40;24.10;;;21.60;83.10;;;;;;4978404;28;20434;-65
2021/04/20 09:57:55;;;;;;;25.93;23.50;;;22.40;80.90;;;;;;4977849;28;20805;-64
2021/04/20 10:00:24;;;;;;;22.00;19.93;;;23.30;79.00;;;;;;4980095;28;20497;-66
2021/04/20 10:03:15;;;;;;;25.63;23.43;;;24.10;73.20;;;;;;4981184;28;20843;-65
2021/04/20 10:05:56;;;;;;;21.77;20.07;;;24.50;72.70;;;;;;4977686;28;20470;-65
2021/04/20 10:08:33;;;;;;;19.50;17.90;;;24.70;68.70;;;;;;4977644;28;20474;-65
2021/04/20 10:11:06;;;;;;;22.73;20.83;;;25.10;65.90;;;;;;4977902;28;20471;-66
2021/04/20 10:13:41;;;;;;;23.10;21.10;;;25.30;64.60;;;;;;4978046;28;20803;-65
2021/04/20 10:16:13;;;;;;;18.47;16.87;;;24.20;68.90;;;;;;4978093;28;20438;-65
2021/04/20 10:18:50;;;;;;;20.37;18.57;;;23.80;67.90;;;;;;4977580;28;20466;-65
2021/04/20 10:21:25;;;;;;;22.10;20.20;;;24.00;72.00;;;;;;4977723;28;20537;-65
2021/04/20 10:24:02;;;;;;;20.60;18.83;;;24.30;65.00;;;;;;4978361;28;20441;-65
2021/04/20 10:26:36;;;;;;;20.60;18.70;;;24.30;67.50;;;;;;4977821;28;20462;-64
2021/04/20 10:29:12;;;;;;;18.50;16.90;;;24.70;66.10;;;;;;4977772;28;20945;-65
2021/04/20 10:31:44;;;;;;;18.17;16.60;;;24.70;63.30;;;;;;4977253;28;21008;-65
2021/04/20 10:34:15;;;;;;;19.13;17.53;;;24.40;64.90;;;;;;4977619;28;20450;-64
2021/04/20 10:36:42;;;;;;;16.13;14.90;;;24.40;64.20;;;;;;4977596;28;20466;-64
2021/04/20 10:39:09;;;;;;;19.00;17.40;;;24.20;60.90;;;;;;4977381;28;20839;-65
2021/04/20 10:41:38;;;;;;;14.70;13.60;;;24.80;62.20;;;;;;4977496;28;20845;-65
2021/04/20 10:44:11;;;;;;;17.73;16.30;;;25.10;62.00;;;;;;4977206;28;20494;-64
2021/04/20 10:46:38;;;;;;;19.50;17.90;;;25.60;58.70;;;;;;4977305;28;20446;-65
2021/04/20 10:49:06;;;;;;;19.63;18.03;;;25.60;58.10;;;;;;4977127;28;20458;-65
2021/04/20 10:51:34;;;;;;;19.03;17.37;;;25.60;58.50;;;;;;4977301;28;20474;-65
2021/04/20 10:54:02;;;;;;;19.00;17.40;;;25.30;60.00;;;;;;4976927;28;20458;-65
2021/04/20 10:56:30;;;;;;;21.33;19.63;;;25.10;61.40;;;;;;4981234;28;20466;-65
2021/04/20 10:59:00;;;;;;;20.50;18.73;;;24.40;66.50;;;;;;4980612;28;20455;-65
2021/04/20 11:01:28;;;;;;;20.10;18.30;;;24.60;63.20;;;;;;4977160;28;20494;-65
2021/04/20 11:03:57;;;;;;;20.07;18.43;;;23.60;65.20;;;;;;4985392;28;20482;-66
2021/04/20 11:07:01;;;;;;;18.73;17.10;;;23.50;62.90;;;;;;4992615;28;20493;-66
2021/04/20 11:09:29;;;;;;;18.90;17.30;;;24.10;61.30;;;;;;4977047;28;20483;-65
2021/04/20 11:11:56;;;;;;;20.40;17.00;;;24.50;61.90;;;;;;4976779;28;20471;-64
2021/04/20 11:14:38;;;;;;;18.17;16.53;;;23.90;59.60;;;;;;4977714;28;20458;-65
2021/04/20 11:17:08;;;;;;;18.97;17.30;;;23.10;63.50;;;;;;4976770;28;20438;-65
2021/04/20 11:19:37;;;;;;;19.77;18.07;;;22.00;65.50;;;;;;4976185;28;20451;-65
2021/04/20 11:22:04;;;;;;;21.93;19.70;;;22.10;64.70;;;;;;4976266;28;20860;-65
2021/04/20 11:24:35;;;;;;;19.37;17.57;;;21.70;71.30;;;;;;4976228;28;20458;-64
2021/04/20 11:27:09;;;;;;;20.00;18.20;;;21.50;64.50;;;;;;4975870;28;20439;-65
2021/04/20 11:29:44;;;;;;;19.13;17.50;;;21.20;64.70;;;;;;4976602;28;20439;-65
2021/04/20 11:32:17;;;;;;;19.77;17.97;;;20.10;67.30;;;;;;4976574;28;20470;-64
2021/04/20 11:34:46;;;;;;;18.90;17.17;;;19.90;68.30;;;;;;4976744;28;20450;-64
2021/04/20 11:37:19;;;;;;;21.57;19.60;;;19.50;69.50;;;;;;4975885;28;20941;-66
2021/04/20 11:39:52;;;;;;;22.43;20.43;;;19.00;72.60;;;;;;4975843;28;20494;-64
2021/04/20 11:42:24;;;;;;;20.33;18.53;;;18.80;83.10;;;;;;4976085;28;20544;-66
2021/04/20 11:44:54;;;;;;;18.80;17.20;;;19.00;74.80;;;;;;4976657;28;20530;-65
2021/04/20 11:47:22;;;;;;;20.70;18.80;;;19.40;76.50;;;;;;4976274;28;20461;-64
2021/04/20 11:49:50;;;;;;;20.80;19.00;;;19.80;76.30;;;;;;4976810;28;20459;-65
2021/04/20 11:52:20;;;;;;;20.27;18.50;;;19.70;71.20;;;;;;4976333;28;20486;-65
2021/04/20 11:54:55;;;;;;;19.40;17.67;;;19.90;74.00;;;;;;4976073;28;20965;-64
2021/04/20 11:57:22;;;;;;;18.20;16.47;;;19.70;74.00;;;;;;4975935;28;20944;-65
2021/04/20 11:59:51;;;;;;;21.00;19.10;;;19.60;75.30;;;;;;4976451;28;20458;-65
2021/04/20 12:02:18;;;;;;;21.57;19.67;;;19.60;76.90;;;;;;4975880;28;20622;-65
2021/04/20 12:04:47;;;;;;;20.20;18.27;;;19.40;73.40;;;;;;4976114;28;20960;-65
2021/04/20 12:07:15;;;;;;;19.13;17.43;;;19.40;75.10;;;;;;4975658;28;20521;-65
2021/04/20 12:09:43;;;;;;;19.10;17.40;;;19.70;76.20;;;;;;4975698;28;20454;-65
2021/04/20 12:12:10;;;;;;;20.50;18.60;;;19.80;76.50;;;;;;4974763;28;20502;-65
2021/04/20 12:14:39;;;;;;;19.53;17.70;;;19.90;78.10;;;;;;4975492;28;20501;-65
2021/04/20 12:17:07;;;;;;;21.50;19.60;;;19.90;73.70;;;;;;4975472;28;20455;-65
2021/04/20 12:19:36;;;;;;;20.67;18.63;;;19.90;74.50;;;;;;4975585;28;20502;-66
2021/04/20 12:22:05;;;;;;;17.67;16.07;;;19.90;79.00;;;;;;4975745;28;20493;-65
2021/04/20 12:24:35;;;;;;;17.90;16.40;;;20.40;74.70;;;;;;4975583;28;20458;-65
2021/04/20 12:27:04;;;;;;;17.70;16.10;;;20.00;68.20;;;;;;4975231;28;20964;-65
2021/04/20 12:29:33;;;;;;;17.07;15.57;;;19.60;74.80;;;;;;4978171;28;20459;-65
2021/04/20 12:32:00;;;;;;;17.10;15.60;;;19.50;74.20;;;;;;4981745;28;20494;-65
2021/04/20 12:34:28;;;;;;;13.03;11.90;;;19.60;75.00;;;;;;4976355;28;20600;-65
2021/04/20 12:37:00;;;;;;;14.80;13.60;;;20.00;70.50;;;;;;4975537;28;20466;-65
2021/04/20 12:39:28;;;;;;;18.33;16.63;;;19.90;68.70;;;;;;4975847;28;20435;-65
2021/04/20 12:41:56;;;;;;;16.47;14.73;;;19.80;71.30;;;;;;4975069;28;20482;-65
2021/04/20 12:44:28;;;;;;;17.30;15.80;;;19.60;70.90;;;;;;4975586;28;20513;-65
2021/04/20 12:46:56;;;;;;;18.00;16.20;;;20.00;73.70;;;;;;4975725;28;20493;-65
2021/04/20 12:49:24;;;;;;;17.67;16.07;;;20.20;75.80;;;;;;4976331;28;20814;-65
2021/04/20 12:51:54;;;;;;;14.93;13.63;;;20.10;74.70;;;;;;4975519;28;20842;-65
2021/04/20 12:54:21;;;;;;;10.73;9.83;;;20.60;74.70;;;;;;4974876;28;20455;-65
2021/04/20 12:56:54;;;;;;;9.87;9.07;;;20.50;71.10;;;;;;4974642;28;20451;-65
2021/04/20 12:59:22;;;;;;;11.60;10.60;;;20.60;72.30;;;;;;4975027;28;20439;-65
2021/04/20 13:01:51;;;;;;;13.23;12.13;;;20.60;70.60;;;;;;4974638;28;20494;-65
2021/04/20 13:04:24;;;;;;;13.07;11.97;;;20.80;64.10;;;;;;4975120;28;20454;-65
2021/04/20 13:06:51;;;;;;;13.00;12.00;;;20.80;64.10;;;;;;4975019;28;20445;-65
2021/04/20 13:09:25;;;;;;;12.40;11.30;;;21.00;67.10;;;;;;4975089;28;20459;-66
2021/04/20 13:11:53;;;;;;;12.77;11.77;;;20.70;64.70;;;;;;4974868;28;20474;-65
2021/04/20 13:14:21;;;;;;;12.70;11.70;;;20.80;64.10;;;;;;4974510;28;20949;-64
2021/04/20 13:16:52;;;;;;;13.90;12.70;;;20.90;66.00;;;;;;4974692;28;20961;-64
2021/04/20 13:19:24;;;;;;;13.43;12.23;;;20.70;64.00;;;;;;4974580;28;20905;-65
2021/04/20 13:21:53;;;;;;;12.30;11.30;;;20.40;69.20;;;;;;4974728;28;20490;-65
2021/04/20 13:24:19;;;;;;;13.07;11.97;;;20.10;69.80;;;;;;4978520;28;20482;-65
2021/04/20 13:26:48;;;;;;;13.33;12.13;;;20.10;73.20;;;;;;4979816;28;20455;-65
2021/04/20 13:29:15;;;;;;;13.10;12.00;;;20.50;64.10;;;;;;4978301;28;20459;-65
2021/04/20 13:31:46;;;;;;;13.17;11.90;;;20.50;69.00;;;;;;4978254;28;20477;-65
2021/04/20 13:34:23;;;;;;;11.70;10.70;;;20.60;66.20;;;;;;4978449;28;20521;-65
2021/04/20 13:36:52;;;;;;;12.73;10.90;;;20.60;63.10;;;;;;4977852;28;20913;-65
2021/04/20 13:39:23;;;;;;;11.50;10.50;;;20.50;65.20;;;;;;4977942;28;20518;-65
2021/04/20 13:41:54;;;;;;;11.43;10.47;;;20.60;66.20;;;;;;4977757;28;20514;-65
2021/04/20 13:44:28;;;;;;;11.40;10.50;;;20.80;63.10;;;;;;4977715;28;20914;-65
2021/04/20 13:46:57;;;;;;;11.90;10.90;;;20.80;61.00;;;;;;4978196;28;20493;-65
2021/04/20 13:49:23;;;;;;;10.67;9.80;;;20.60;63.00;;;;;;4978197;28;20461;-65
2021/04/20 13:51:54;;;;;;;12.30;10.00;;;20.40;62.30;;;;;;4977590;28;20473;-65
2021/04/20 13:54:27;;;;;;;11.17;10.27;;;20.10;61.80;;;;;;4977532;28;20905;-65
2021/04/20 13:56:58;;;;;;;12.83;11.73;;;19.80;65.20;;;;;;4977872;28;20442;-65
2021/04/20 13:59:28;;;;;;;11.50;10.60;;;19.50;64.20;;;;;;4977890;28;20451;-65
2021/04/20 14:01:56;;;;;;;12.00;10.80;;;19.20;62.90;;;;;;4979032;28;20514;-65
2021/04/20 14:04:27;;;;;;;11.17;10.27;;;18.90;62.90;;;;;;4988727;28;20525;-66
2021/04/20 14:06:57;;;;;;;11.67;10.57;;;18.40;65.10;;;;;;4980981;28;20829;-65
2021/04/20 14:09:27;;;;;;;12.77;11.57;;;18.40;66.20;;;;;;4977658;28;20456;-65
2021/04/20 14:12:01;;;;;;;12.70;11.47;;;18.50;66.80;;;;;;4978171;28;20474;-65
2021/04/20 14:14:30;;;;;;;13.50;10.33;;;18.60;67.50;;;;;;4977482;28;20471;-65
2021/04/20 14:16:58;;;;;;;13.13;12.03;;;18.80;68.20;;;;;;4977687;28;20513;-65
2021/04/20 14:19:25;;;;;;;12.27;11.23;;;18.90;67.60;;;;;;4977698;28;20522;-65
2021/04/20 14:21:58;;;;;;;12.27;11.13;;;18.90;65.00;;;;;;4976945;28;20486;-65
2021/04/20 14:24:25;;;;;;;14.90;13.57;;;19.00;68.00;;;;;;4976904;28;20906;-65
2021/04/20 14:26:52;;;;;;;14.00;12.70;;;18.90;68.50;;;;;;4977994;28;20463;-65
2021/04/20 14:29:19;;;;;;;13.67;12.37;;;18.90;72.90;;;;;;4977365;28;20454;-65
2021/04/20 14:31:49;;;;;;;13.80;12.53;;;18.90;72.00;;;;;;4977201;28;20530;-65
2021/04/20 14:34:16;;;;;;;13.93;12.50;;;19.20;72.30;;;;;;4976193;28;20602;-65
2021/04/20 14:36:45;;;;;;;15.30;14.00;;;19.20;71.40;;;;;;4976953;28;20494;-65
2021/04/20 14:39:13;;;;;;;19.93;17.83;;;19.20;71.80;;;;;;4977041;28;20542;-65
2021/04/20 14:41:43;;;;;;;21.20;19.17;;;19.00;74.50;;;;;;4977203;28;20853;-65
2021/04/20 14:44:12;;;;;;;21.60;19.27;;;19.30;76.90;;;;;;4976987;28;20442;-65
2021/04/20 14:46:43;;;;;;;18.50;16.80;;;19.00;77.30;;;;;;4976892;28;20451;-65
2021/04/20 14:49:11;;;;;;;19.03;17.17;;;18.90;75.80;;;;;;4976520;28;20984;-65
2021/04/20 14:51:42;;;;;;;18.50;16.80;;;18.90;78.20;;;;;;4976784;28;20475;-65
2021/04/20 14:54:12;;;;;;;18.70;16.90;;;19.20;76.50;;;;;;4976719;28;20906;-65
2021/04/20 14:56:40;;;;;;;18.37;16.70;;;19.20;77.00;;;;;;4977098;28;20463;-65
2021/04/20 14:59:08;;;;;;;18.80;17.10;;;19.40;76.70;;;;;;4976860;28;20533;-65
2021/04/20 15:01:36;;;;;;;17.40;15.80;;;19.40;75.80;;;;;;4976000;28;20581;-65
2021/04/20 15:04:08;;;;;;;19.40;16.57;;;19.70;77.20;;;;;;4976538;28;20459;-65
2021/04/20 15:06:34;;;;;;;18.60;16.83;;;19.80;72.10;;;;;;4976408;28;20450;-64
2021/04/20 15:09:04;;;;;;;19.20;17.40;;;19.90;75.40;;;;;;4976560;28;20455;-66
2021/04/20 15:11:32;;;;;;;18.40;16.60;;;19.90;71.90;;;;;;4976258;28;20475;-65
2021/04/20 15:14:06;;;;;;;18.10;16.47;;;19.80;71.90;;;;;;4976906;28;20517;-64
2021/04/20 15:16:34;;;;;;;17.30;15.70;;;19.70;70.70;;;;;;4976886;28;20434;-66
2021/04/20 15:19:04;;;;;;;16.30;14.63;;;19.60;71.10;;;;;;4976724;28;20463;-64
2021/04/20 15:21:34;;;;;;;18.77;16.87;;;19.50;73.20;;;;;;4976682;28;20483;-66
2021/04/20 15:24:06;;;;;;;17.93;16.33;;;19.20;73.20;;;;;;4976375;28;20443;-66
2021/04/20 15:26:38;;;;;;;17.00;15.50;;;19.10;73.80;;;;;;4976107;28;20435;-65
2021/04/20 15:29:07;;;;;;;16.50;14.90;;;19.00;74.00;;;;;;4976221;28;20446;-66
2021/04/20 15:31:36;;;;;;;17.40;15.67;;;18.90;74.40;;;;;;4976926;28;20478;-65
2021/04/20 15:34:06;;;;;;;17.57;15.80;;;18.90;75.00;;;;;;4976132;28;20455;-65
2021/04/20 15:36:34;;;;;;;20.07;16.20;;;19.10;74.00;;;;;;4983765;28;20461;-65
2021/04/20 15:39:05;;;;;;;18.67;16.83;;;19.00;72.60;;;;;;4983417;28;20458;-65
2021/04/20 15:41:37;;;;;;;17.13;15.23;;;18.90;73.30;;;;;;4976365;28;20486;-65
2021/04/20 15:44:06;;;;;;;16.87;15.37;;;18.90;74.60;;;;;;4976263;28;20439;-65
2021/04/20 15:46:34;;;;;;;17.27;15.47;;;18.90;71.60;;;;;;4976382;28;20462;-65
2021/04/20 15:49:04;;;;;;;15.97;14.43;;;18.80;75.20;;;;;;4976893;28;20459;-65
2021/04/20 15:51:33;;;;;;;14.60;13.30;;;19.00;72.20;;;;;;4976435;28;20466;-65
2021/04/20 15:54:04;;;;;;;14.77;13.23;;;19.20;73.30;;;;;;4975425;28;20451;-65
2021/04/20 15:56:35;;;;;;;15.53;14.13;;;19.30;72.50;;;;;;4977501;28;20439;-65
2021/04/20 15:59:05;;;;;;;18.60;15.00;;;19.20;70.00;;;;;;4975714;28;20435;-66
2021/04/20 16:01:36;;;;;;;14.13;12.90;;;19.10;70.90;;;;;;4975146;28;20965;-65
2021/04/20 16:04:06;;;;;;;15.70;14.30;;;19.30;70.90;;;;;;4975682;28;20439;-65
2021/04/20 16:06:38;;;;;;;26.80;14.87;;;19.10;69.60;;;;;;4976830;28;20450;-64
2021/04/20 16:09:06;;;;;;;13.77;12.67;;;19.00;70.70;;;;;;4976544;28;20458;-65
2021/04/20 16:11:33;;;;;;;13.17;11.90;;;18.20;71.10;;;;;;4974991;28;20977;-64
2021/04/20 16:14:00;;;;;;;13.27;11.97;;;18.30;71.90;;;;;;4975613;28;20466;-65
2021/04/20 16:16:30;;;;;;;14.40;12.90;;;18.40;70.30;;;;;;4977623;28;20454;-64
2021/04/20 16:19:01;;;;;;;13.63;12.20;;;18.40;71.50;;;;;;4975954;28;20451;-65
2021/04/20 16:21:33;;;;;;;13.10;12.00;;;18.30;68.70;;;;;;4974818;28;21052;-67
2021/04/20 16:24:00;;;;;;;16.00;14.33;;;18.30;71.30;;;;;;4975121;28;20485;-65
2021/04/20 16:26:29;;;;;;;14.67;13.30;;;17.90;71.90;;;;;;4975087;28;20459;-64
2021/04/20 16:28:59;;;;;;;14.90;13.40;;;17.90;72.00;;;;;;4974994;28;21013;-65
2021/04/20 16:31:32;;;;;;;17.20;15.50;;;18.00;72.10;;;;;;4974477;28;20993;-66
2021/04/20 16:34:01;;;;;;;16.13;14.53;;;17.90;74.30;;;;;;4974952;28;20535;-66
2021/04/20 16:36:34;;;;;;;15.97;14.33;;;17.80;75.40;;;;;;4974829;28;20513;-64
2021/04/20 16:39:16;;;;;;;16.00;14.47;;;17.80;76.90;;;;;;4974955;28;20439;-65
2021/04/20 16:41:50;;;;;;;15.60;14.10;;;17.70;76.10;;;;;;4974391;28;20493;-65
2021/04/20 16:44:44;;;;;;;15.67;14.17;;;17.60;76.30;;;;;;4975323;28;20463;-65
2021/04/20 16:47:41;;;;;;;15.57;13.90;;;17.50;76.30;;;;;;4974580;28;21030;-64